Time;durP1;ratioP1;P1;durP2;ratioP2;P2;SDS_P1;SDS_P2;PMS_P1;PMS_P2;Temp;Humidity;BMP_temperature;BMP_pressure;BME280_temperature;BME280_humidity;BME280_pressure;Samples;Min_cycle;Max_cycle;Signal;HPM_P1;HPM_P2
2022/01/14 00:01:10;;;;;;;21.70;10.18;;;6.20;99.90;;;;;;5045549;28;20058;-77
2022/01/14 00:03:36;;;;;;;25.08;10.32;;;6.20;99.90;;;;;;5060682;28;20079;-78
2022/01/14 00:06:02;;;;;;;25.60;9.30;;;6.70;99.90;;;;;;5059938;28;20051;-78
2022/01/14 00:08:27;;;;;;;26.67;9.80;;;6.20;99.90;;;;;;5076477;28;20047;-78
2022/01/14 00:10:56;;;;;;;26.77;9.05;;;6.50;99.90;;;;;;5078723;28;20817;-77
2022/01/14 00:16:06;;;;;;;24.05;9.35;;;6.10;99.90;;;;;;5047839;28;20077;-78
2022/01/14 00:18:32;;;;;;;20.70;8.43;;;6.00;99.90;;;;;;5058324;28;20044;-78
2022/01/14 00:21:00;;;;;;;22.65;9.18;;;6.00;99.90;;;;;;5041565;28;20048;-77
2022/01/14 00:23:33;;;;;;;25.92;9.15;;;5.90;99.90;;;;;;5055091;28;20080;-79
2022/01/14 00:31:46;;;;;;;25.08;8.88;;;5.90;99.90;;;;;;5074709;28;20082;-79
2022/01/14 00:34:13;;;;;;;29.45;9.57;;;5.80;99.90;;;;;;5075788;28;20136;-77
2022/01/14 00:36:40;;;;;;;28.98;9.45;;;5.80;99.90;;;;;;5056553;28;20048;-78
2022/01/14 00:39:08;;;;;;;29.30;8.82;;;5.80;99.90;;;;;;5058611;28;20055;-78
2022/01/14 00:41:35;;;;;;;21.92;8.68;;;5.80;99.90;;;;;;5056718;28;20135;-78
2022/01/14 00:44:05;;;;;;;21.02;9.50;;;5.80;99.90;;;;;;5056541;28;20048;-77
2022/01/14 00:46:31;;;;;;;27.13;9.07;;;5.80;99.90;;;;;;5043130;28;20101;-78
2022/01/14 00:48:56;;;;;;;26.95;9.20;;;5.80;99.90;;;;;;5075126;28;20044;-78
2022/01/14 00:51:23;;;;;;;25.05;10.02;;;5.90;99.90;;;;;;5055968;28;20043;-78
2022/01/14 00:53:49;;;;;;;25.75;9.55;;;5.80;99.90;;;;;;5044472;28;20147;-78
2022/01/14 00:57:02;;;;;;;25.45;9.05;;;6.20;99.90;;;;;;5057311;28;20036;-78
2022/01/14 00:59:15;;;;;;;23.27;9.13;;;5.90;99.90;;;;;;5056329;28;20062;-78
2022/01/14 01:01:45;;;;;;;25.98;9.85;;;5.90;99.90;;;;;;5056484;28;20059;-78
2022/01/14 01:04:18;;;;;;;23.25;9.05;;;5.90;99.90;;;;;;5054588;28;20043;-79
2022/01/14 01:06:46;;;;;;;23.00;9.45;;;5.90;99.90;;;;;;5055657;28;20052;-78
2022/01/14 01:09:13;;;;;;;22.42;10.23;;;5.90;99.90;;;;;;5046329;28;20040;-78
2022/01/14 01:11:45;;;;;;;28.27;10.93;;;5.90;99.90;;;;;;5054932;28;20071;-78
2022/01/14 01:14:16;;;;;;;21.67;9.38;;;6.00;99.90;;;;;;5057359;28;20040;-78
2022/01/14 01:16:42;;;;;;;26.88;9.48;;;6.00;99.90;;;;;;5058110;28;20124;-78
2022/01/14 01:19:08;;;;;;;20.98;9.68;;;6.30;99.90;;;;;;5060998;28;20122;-78
2022/01/14 01:21:34;;;;;;;23.63;9.40;;;6.30;99.90;;;;;;5074255;28;20043;-79
2022/01/14 01:24:00;;;;;;;27.70;9.57;;;6.10;99.90;;;;;;5058144;28;20451;-78
2022/01/14 01:26:33;;;;;;;23.48;9.43;;;6.20;99.90;;;;;;5064667;28;20044;-78
2022/01/14 01:31:36;;;;;;;25.88;8.95;;;6.20;99.90;;;;;;5075225;28;20052;-78
2022/01/14 01:34:09;;;;;;;22.92;8.45;;;6.60;99.90;;;;;;5060149;28;20374;-78
2022/01/14 01:36:36;;;;;;;26.27;9.20;;;6.20;99.90;;;;;;5060035;28;20158;-79
2022/01/14 01:39:05;;;;;;;21.48;8.23;;;6.20;99.90;;;;;;5078316;28;20382;-79
2022/01/14 01:41:33;;;;;;;27.05;9.25;;;6.60;99.90;;;;;;5078091;28;20443;-78
2022/01/14 01:44:00;;;;;;;26.15;9.15;;;6.20;99.90;;;;;;5076781;28;20051;-78
2022/01/14 01:46:26;;;;;;;23.42;9.13;;;6.10;99.90;;;;;;5076388;28;20048;-78
2022/01/14 01:48:52;;;;;;;20.98;9.18;;;6.10;99.90;;;;;;5076867;28;20040;-78
2022/01/14 01:51:20;;;;;;;21.67;9.25;;;6.10;99.90;;;;;;5059600;28;20465;-78
2022/01/14 01:53:47;;;;;;;21.23;9.52;;;6.40;99.90;;;;;;5076255;28;20047;-78
2022/01/14 01:56:14;;;;;;;24.58;9.55;;;6.10;99.90;;;;;;5059425;28;20055;-80
2022/01/14 01:58:40;;;;;;;21.20;9.55;;;6.10;99.90;;;;;;5061257;28;20043;-78
2022/01/14 02:01:07;;;;;;;21.52;10.10;;;6.10;99.90;;;;;;5077563;28;20047;-78
2022/01/14 02:03:34;;;;;;;21.90;9.57;;;6.10;99.90;;;;;;5047722;28;20051;-79
2022/01/14 02:06:01;;;;;;;19.48;9.63;;;6.10;99.90;;;;;;5059477;28;20052;-78
2022/01/14 02:08:27;;;;;;;20.85;9.68;;;6.00;99.90;;;;;;5043592;28;20129;-78
2022/01/14 02:10:52;;;;;;;22.13;9.70;;;6.10;99.90;;;;;;5076430;28;20684;-78
2022/01/14 02:13:18;;;;;;;25.02;10.32;;;6.10;99.90;;;;;;5060127;28;20039;-78
2022/01/14 02:15:51;;;;;;;23.77;10.57;;;6.10;99.90;;;;;;5041211;28;20048;-78
2022/01/14 02:23:31;;;;;;;25.35;10.20;;;6.00;99.90;;;;;;5061390;28;20055;-78
2022/01/14 02:25:57;;;;;;;22.60;10.50;;;6.00;99.90;;;;;;5057908;28;20043;-78
2022/01/14 02:28:23;;;;;;;23.58;9.98;;;6.00;99.90;;;;;;5059812;28;20127;-78
2022/01/14 02:30:50;;;;;;;25.48;9.95;;;6.00;99.90;;;;;;5041623;28;20156;-77
2022/01/14 02:33:18;;;;;;;22.95;9.88;;;6.40;99.90;;;;;;5058627;28;20130;-77
2022/01/14 02:35:46;;;;;;;21.83;9.80;;;6.00;99.90;;;;;;5073668;28;20700;-78
2022/01/14 02:38:13;;;;;;;19.48;10.38;;;6.00;99.90;;;;;;5043137;28;20044;-78
2022/01/14 02:40:40;;;;;;;20.48;9.63;;;6.10;99.90;;;;;;5073883;28;20078;-79
2022/01/14 02:43:12;;;;;;;22.20;10.35;;;6.10;99.90;;;;;;5041497;28;20076;-78
2022/01/14 02:45:38;;;;;;;20.35;9.60;;;6.20;99.90;;;;;;5046004;28;20044;-79
2022/01/14 02:48:04;;;;;;;19.08;9.90;;;6.10;99.90;;;;;;5074942;28;20143;-78
2022/01/14 02:56:04;;;;;;;22.90;9.40;;;6.10;99.90;;;;;;5042079;28;20048;-78
2022/01/14 02:58:32;;;;;;;19.75;9.10;;;6.10;99.90;;;;;;5041643;28;20079;-78
2022/01/14 03:01:00;;;;;;;17.55;9.05;;;6.10;99.90;;;;;;5058962;28;20105;-78
2022/01/14 03:03:29;;;;;;;17.30;9.52;;;6.10;99.90;;;;;;5075625;28;20051;-78
2022/01/14 03:05:55;;;;;;;18.05;9.30;;;6.10;99.90;;;;;;5058126;28;20048;-78
2022/01/14 03:08:22;;;;;;;20.70;9.63;;;6.10;99.90;;;;;;5059527;28;20056;-78
2022/01/14 03:10:58;;;;;;;25.20;9.48;;;6.10;99.90;;;;;;5074919;28;20040;-78
2022/01/14 03:13:24;;;;;;;20.42;9.45;;;6.10;99.90;;;;;;5075164;28;20047;-78
2022/01/14 03:15:50;;;;;;;22.02;9.75;;;6.10;99.90;;;;;;5073161;28;20091;-78
2022/01/14 03:18:22;;;;;;;18.45;8.68;;;6.10;99.90;;;;;;5076239;28;20047;-77
2022/01/14 03:20:57;;;;;;;21.45;9.23;;;6.10;99.90;;;;;;5056990;28;20044;-77
2022/01/14 03:23:23;;;;;;;16.05;9.32;;;6.10;99.90;;;;;;5059950;28;20068;-77
2022/01/14 03:25:52;;;;;;;18.27;8.73;;;6.10;99.90;;;;;;5074544;28;20074;-78
2022/01/14 03:28:21;;;;;;;20.33;8.27;;;6.10;99.90;;;;;;5060146;28;20044;-77
2022/01/14 03:30:47;;;;;;;19.83;8.93;;;6.10;99.90;;;;;;5073753;28;20078;-77
2022/01/14 03:33:13;;;;;;;21.40;9.32;;;6.20;99.90;;;;;;5073163;28;20071;-77
2022/01/14 03:35:38;;;;;;;17.05;7.97;;;6.20;99.90;;;;;;5074153;28;20534;-78
2022/01/14 03:38:04;;;;;;;12.30;7.50;;;6.20;99.90;;;;;;5042904;28;20048;-78
2022/01/14 03:40:30;;;;;;;17.55;8.55;;;6.20;99.90;;;;;;5057734;28;20051;-80
2022/01/14 03:42:56;;;;;;;14.85;6.85;;;6.20;99.90;;;;;;5025228;28;20044;-80
2022/01/14 03:45:21;;;;;;;20.63;8.50;;;6.30;99.90;;;;;;5075515;28;20079;-80
2022/01/14 03:47:47;;;;;;;22.58;8.70;;;6.20;99.90;;;;;;5074514;28;20085;-80
2022/01/14 03:50:13;;;;;;;17.63;8.35;;;6.30;99.90;;;;;;5057561;28;20117;-80
2022/01/14 03:52:38;;;;;;;16.10;8.05;;;6.20;99.90;;;;;;5042594;28;20052;-80
2022/01/14 03:55:05;;;;;;;18.02;8.07;;;6.20;99.90;;;;;;5047370;28;20279;-78
2022/01/14 03:57:30;;;;;;;17.27;8.05;;;6.20;99.90;;;;;;5046803;28;20435;-78
2022/01/14 03:59:56;;;;;;;19.13;8.00;;;6.10;99.90;;;;;;5077829;28;20040;-78
2022/01/14 04:02:22;;;;;;;15.32;7.50;;;6.60;99.90;;;;;;5061668;28;20508;-77
2022/01/14 04:04:47;;;;;;;18.38;8.02;;;6.20;99.90;;;;;;5044953;28;20059;-79
2022/01/14 04:07:13;;;;;;;15.05;7.93;;;6.10;99.90;;;;;;5062743;28;20384;-77
2022/01/14 04:09:40;;;;;;;16.35;7.82;;;6.20;99.90;;;;;;5066225;28;20204;-77
2022/01/14 04:12:16;;;;;;;17.65;7.72;;;6.80;99.90;;;;;;5078091;28;20542;-79
2022/01/14 04:17:11;;;;;;;21.80;8.93;;;6.10;99.90;;;;;;5077956;28;20143;-79
2022/01/14 04:19:37;;;;;;;17.05;9.07;;;6.50;99.90;;;;;;5061895;28;20066;-79
2022/01/14 04:22:03;;;;;;;17.42;8.27;;;6.00;99.90;;;;;;5059387;28;20048;-79
2022/01/14 04:24:28;;;;;;;22.48;8.73;;;6.00;99.90;;;;;;5049907;28;20130;-79
2022/01/14 04:26:54;;;;;;;16.30;8.57;;;6.00;99.90;;;;;;5036112;28;20131;-80
2022/01/14 04:29:20;;;;;;;21.80;9.50;;;5.90;99.90;;;;;;5077771;28;20044;-79
2022/01/14 04:31:46;;;;;;;18.80;8.55;;;5.90;99.90;;;;;;5044065;28;20048;-79
2022/01/14 04:34:11;;;;;;;16.08;8.82;;;5.90;99.90;;;;;;5042495;28;20036;-79
2022/01/14 04:36:37;;;;;;;20.17;8.65;;;5.90;99.90;;;;;;5077552;28;20044;-79
2022/01/14 04:39:03;;;;;;;20.92;8.45;;;6.30;99.90;;;;;;5060388;28;20047;-79
2022/01/14 04:41:29;;;;;;;17.17;8.32;;;5.90;99.90;;;;;;5082591;28;20055;-79
2022/01/14 04:43:55;;;;;;;23.10;9.32;;;5.90;99.90;;;;;;5071642;28;20040;-78
2022/01/14 04:48:52;;;;;;;20.67;8.30;;;5.90;99.90;;;;;;5073993;28;20058;-79
2022/01/14 04:51:21;;;;;;;18.77;7.75;;;5.90;99.90;;;;;;5079785;28;20044;-79
2022/01/14 04:53:47;;;;;;;17.25;8.50;;;5.90;99.90;;;;;;5044990;28;20563;-79
2022/01/14 04:56:13;;;;;;;18.63;8.57;;;5.90;99.90;;;;;;5059978;28;20052;-79
2022/01/14 04:58:39;;;;;;;17.83;8.57;;;5.90;99.90;;;;;;5037791;28;20044;-79
2022/01/14 05:01:04;;;;;;;34.97;9.35;;;5.90;99.90;;;;;;5060162;28;20046;-80
2022/01/14 05:03:30;;;;;;;21.23;9.10;;;6.10;99.90;;;;;;5046767;28;20427;-78
2022/01/14 05:05:59;;;;;;;17.88;8.98;;;5.90;99.90;;;;;;5059380;28;20112;-78
2022/01/14 05:08:34;;;;;;;17.63;8.35;;;5.90;99.90;;;;;;5043828;28;20143;-79
2022/01/14 05:11:04;;;;;;;18.25;7.97;;;5.90;99.90;;;;;;5075064;28;20130;-79
2022/01/14 05:13:30;;;;;;;15.07;8.00;;;5.90;99.90;;;;;;5043772;28;20126;-78
2022/01/14 05:15:56;;;;;;;18.63;8.25;;;5.90;99.90;;;;;;5057696;28;20130;-79
2022/01/14 05:18:22;;;;;;;22.40;9.30;;;5.90;99.90;;;;;;5043459;28;20044;-78
2022/01/14 05:20:48;;;;;;;20.98;8.38;;;5.90;99.90;;;;;;5035397;28;20382;-79
2022/01/14 05:23:14;;;;;;;22.00;8.55;;;6.80;99.90;;;;;;5026945;28;20051;-78
2022/01/14 05:25:40;;;;;;;16.83;8.40;;;5.90;99.90;;;;;;5075012;28;20594;-78
2022/01/14 05:28:06;;;;;;;26.17;8.93;;;5.90;99.90;;;;;;5049288;28;20217;-79
2022/01/14 05:30:31;;;;;;;25.23;9.13;;;5.90;99.90;;;;;;5074586;28;20119;-79
2022/01/14 05:32:57;;;;;;;16.75;8.60;;;5.90;99.90;;;;;;5055453;28;20127;-79
2022/01/14 05:35:25;;;;;;;16.23;8.27;;;5.90;99.90;;;;;;5073365;28;20501;-81
2022/01/14 05:37:52;;;;;;;19.20;9.10;;;5.90;99.90;;;;;;5074707;28;20254;-78
2022/01/14 05:40:19;;;;;;;19.27;7.85;;;6.30;99.90;;;;;;5056325;28;20079;-78
2022/01/14 05:42:45;;;;;;;19.83;8.25;;;6.60;99.90;;;;;;5055986;28;20409;-79
2022/01/14 05:45:14;;;;;;;18.73;7.82;;;5.90;99.90;;;;;;5057878;28;20036;-78
2022/01/14 05:47:41;;;;;;;22.83;7.80;;;5.90;99.90;;;;;;5075870;28;20397;-79
2022/01/14 05:50:26;;;;;;;15.85;7.22;;;5.90;99.90;;;;;;5076942;28;20043;-78
2022/01/14 05:52:52;;;;;;;16.85;7.60;;;5.90;99.90;;;;;;5073210;28;20051;-79
2022/01/14 05:55:20;;;;;;;15.30;7.10;;;5.90;99.90;;;;;;5073889;28;20043;-78
2022/01/14 05:57:46;;;;;;;18.80;7.40;;;5.90;99.90;;;;;;5058603;28;20047;-78
2022/01/14 06:00:15;;;;;;;15.40;6.53;;;5.90;99.90;;;;;;5058323;28;20431;-79
2022/01/14 06:02:40;;;;;;;15.68;6.53;;;5.90;99.90;;;;;;5059360;28;20553;-78
2022/01/14 06:05:06;;;;;;;19.02;6.65;;;5.90;99.90;;;;;;5041770;28;20123;-79
2022/01/14 06:07:32;;;;;;;19.77;7.60;;;5.90;99.90;;;;;;5056458;28;20102;-78
2022/01/14 06:09:58;;;;;;;14.95;6.95;;;5.90;99.90;;;;;;5056761;28;20373;-80
2022/01/14 06:12:24;;;;;;;14.45;6.32;;;5.90;99.90;;;;;;5042662;28;20207;-78
2022/01/14 06:14:49;;;;;;;12.85;5.93;;;5.90;99.90;;;;;;5040231;28;20459;-79
2022/01/14 06:17:15;;;;;;;20.85;6.18;;;6.40;99.90;;;;;;5072070;28;20493;-78
2022/01/14 06:19:41;;;;;;;16.30;5.80;;;6.00;99.90;;;;;;5058813;28;20040;-79
2022/01/14 06:22:06;;;;;;;17.75;6.25;;;6.00;99.90;;;;;;5056533;28;20090;-79
2022/01/14 06:24:32;;;;;;;12.88;6.15;;;6.00;99.90;;;;;;5055295;28;20473;-79
2022/01/14 06:26:58;;;;;;;13.32;5.30;;;6.00;99.90;;;;;;5057832;28;20058;-79
2022/01/14 06:29:24;;;;;;;13.10;5.70;;;6.00;99.90;;;;;;5059304;28;20048;-79
2022/01/14 06:31:49;;;;;;;12.60;5.28;;;6.10;99.90;;;;;;5057823;28;20538;-79
2022/01/14 06:34:15;;;;;;;17.50;5.18;;;6.00;99.90;;;;;;5057025;28;20204;-79
2022/01/14 06:36:42;;;;;;;13.68;5.30;;;6.00;99.90;;;;;;5072392;28;20098;-80
2022/01/14 06:39:08;;;;;;;14.55;5.00;;;6.00;99.90;;;;;;5073588;28;20191;-79
2022/01/14 06:41:34;;;;;;;19.65;5.10;;;6.10;99.90;;;;;;5075553;28;20048;-79
2022/01/14 06:44:00;;;;;;;14.48;5.43;;;6.50;99.90;;;;;;5060247;28;20048;-80
2022/01/14 06:46:26;;;;;;;11.90;4.85;;;6.50;99.90;;;;;;5052240;28;20048;-79
2022/01/14 06:48:52;;;;;;;13.98;5.10;;;6.10;99.90;;;;;;5059353;28;20503;-79
2022/01/14 06:51:17;;;;;;;12.73;4.60;;;6.20;99.90;;;;;;5042900;28;20059;-79
2022/01/14 06:53:43;;;;;;;12.43;4.28;;;6.20;99.90;;;;;;5075581;28;20482;-79
2022/01/14 06:56:14;;;;;;;12.25;4.55;;;6.10;99.90;;;;;;5058760;28;20044;-79
2022/01/14 06:58:40;;;;;;;15.52;4.43;;;6.50;99.90;;;;;;5045433;28;20560;-79
2022/01/14 07:01:06;;;;;;;14.48;4.55;;;6.10;99.90;;;;;;5058794;28;20440;-79
2022/01/14 07:03:32;;;;;;;9.88;4.25;;;5.50;99.90;;;;;;5061562;28;20044;-79
2022/01/14 07:05:58;;;;;;;15.07;4.40;;;6.10;99.90;;;;;;5059834;28;20098;-78
2022/01/14 07:08:24;;;;;;;13.40;4.35;;;6.10;99.90;;;;;;5044361;28;20051;-79
2022/01/14 07:10:49;;;;;;;11.48;4.35;;;6.10;99.90;;;;;;5043090;28;20054;-79
2022/01/14 07:13:15;;;;;;;14.52;5.03;;;6.10;99.90;;;;;;5076597;28;20404;-79
2022/01/14 07:15:41;;;;;;;10.07;4.38;;;6.10;99.90;;;;;;5044063;28;20093;-79
2022/01/14 07:18:06;;;;;;;10.32;4.05;;;6.10;99.90;;;;;;5027230;28;20051;-79
2022/01/14 07:20:32;;;;;;;11.70;4.43;;;6.10;99.90;;;;;;5045930;28;20113;-78
2022/01/14 07:22:58;;;;;;;14.27;4.60;;;6.10;99.90;;;;;;5077898;28;20047;-79
2022/01/14 07:25:24;;;;;;;9.23;3.92;;;6.10;99.90;;;;;;5076199;28;20075;-79
2022/01/14 07:27:50;;;;;;;13.60;4.65;;;6.10;99.90;;;;;;5078906;28;20078;-79
2022/01/14 07:30:16;;;;;;;11.20;4.25;;;6.10;99.90;;;;;;5047846;28;20105;-79
2022/01/14 07:32:42;;;;;;;8.20;3.58;;;6.10;99.90;;;;;;5080366;28;20139;-78
2022/01/14 07:35:09;;;;;;;10.75;3.78;;;6.10;99.90;;;;;;5062041;28;20098;-80
2022/01/14 07:37:35;;;;;;;9.05;3.90;;;5.70;99.90;;;;;;5082179;28;20050;-79
2022/01/14 07:40:01;;;;;;;8.38;3.97;;;6.20;99.90;;;;;;5047617;28;20048;-79
2022/01/14 07:42:26;;;;;;;8.38;3.40;;;6.20;99.90;;;;;;5079429;28;20097;-79
2022/01/14 07:44:52;;;;;;;12.32;4.30;;;6.20;99.90;;;;;;5064340;28;20044;-79
2022/01/14 07:47:18;;;;;;;8.73;3.95;;;6.20;99.90;;;;;;5030900;28;20576;-79
2022/01/14 07:49:44;;;;;;;9.75;3.42;;;6.20;99.90;;;;;;5081673;28;20619;-79
2022/01/14 07:52:10;;;;;;;9.88;4.07;;;6.20;99.90;;;;;;5064554;28;20051;-80
2022/01/14 07:54:36;;;;;;;12.00;3.67;;;6.20;99.90;;;;;;5062163;28;20077;-79
2022/01/14 07:57:03;;;;;;;10.77;3.80;;;6.20;99.90;;;;;;5064375;28;20044;-79
2022/01/14 07:59:32;;;;;;;12.23;3.63;;;6.20;99.90;;;;;;5048810;28;20168;-79
2022/01/14 08:01:59;;;;;;;9.15;3.20;;;6.20;99.90;;;;;;5080620;28;20497;-79
2022/01/14 08:04:26;;;;;;;11.32;2.95;;;6.00;99.90;;;;;;5038267;28;20094;-80
2022/01/14 08:06:56;;;;;;;13.38;3.17;;;6.60;99.90;;;;;;5064641;28;20077;-79
2022/01/14 08:09:23;;;;;;;13.55;3.35;;;6.20;99.90;;;;;;5064271;28;20056;-79
2022/01/14 08:11:49;;;;;;;10.40;2.75;;;6.30;99.90;;;;;;5063692;28;20048;-79
2022/01/14 08:14:15;;;;;;;12.77;3.35;;;6.90;99.90;;;;;;5061907;28;20493;-80
2022/01/14 08:16:41;;;;;;;11.90;2.75;;;6.50;99.90;;;;;;5063144;28;20185;-79
2022/01/14 08:19:07;;;;;;;8.13;2.67;;;6.20;99.90;;;;;;5062919;28;20051;-79
2022/01/14 08:21:33;;;;;;;11.90;2.60;;;6.40;99.90;;;;;;5046558;28;20055;-79
2022/01/14 08:23:59;;;;;;;9.00;3.05;;;6.20;99.90;;;;;;5047127;28;20091;-79
2022/01/14 08:26:25;;;;;;;7.05;2.35;;;6.20;99.90;;;;;;5046576;28;20386;-79
2022/01/14 08:28:51;;;;;;;7.78;2.53;;;7.20;99.90;;;;;;5081375;28;20534;-79
2022/01/14 08:31:17;;;;;;;10.30;2.67;;;6.20;99.90;;;;;;5048890;28;20077;-79
2022/01/14 08:33:44;;;;;;;13.70;2.83;;;6.30;99.90;;;;;;5064133;28;20044;-79
2022/01/14 08:36:11;;;;;;;10.55;2.65;;;6.30;99.90;;;;;;5080715;28;20054;-81
2022/01/14 08:38:37;;;;;;;10.07;2.70;;;6.30;99.90;;;;;;5079909;28;20048;-79
2022/01/14 08:41:03;;;;;;;6.07;2.60;;;7.20;99.90;;;;;;5080164;28;20040;-79
2022/01/14 08:43:29;;;;;;;7.30;2.42;;;6.30;99.90;;;;;;5079466;28;20048;-78
2022/01/14 08:45:58;;;;;;;11.70;2.92;;;6.30;99.90;;;;;;5047524;28;20051;-79
2022/01/14 08:48:24;;;;;;;16.50;3.22;;;6.30;99.90;;;;;;5080635;28;20699;-79
2022/01/14 08:50:50;;;;;;;11.07;2.58;;;6.30;99.90;;;;;;5079354;28;20138;-79
2022/01/14 08:53:16;;;;;;;9.65;2.28;;;6.40;99.90;;;;;;5062926;28;20557;-79
2022/01/14 08:55:42;;;;;;;9.93;2.33;;;6.40;99.90;;;;;;5079837;28;20048;-79
2022/01/14 08:58:09;;;;;;;11.43;2.45;;;6.40;99.90;;;;;;5063573;28;20051;-79
2022/01/14 09:00:35;;;;;;;11.27;3.05;;;6.40;99.90;;;;;;5077835;28;20104;-79
2022/01/14 09:03:03;;;;;;;12.07;2.92;;;6.40;99.90;;;;;;5061407;28;20055;-79
2022/01/14 09:05:29;;;;;;;10.93;2.47;;;6.40;99.90;;;;;;5061959;28;20052;-79
2022/01/14 09:07:55;;;;;;;9.88;3.25;;;6.50;99.90;;;;;;5079236;28;20121;-78
2022/01/14 09:10:21;;;;;;;10.98;2.85;;;6.50;99.90;;;;;;5063140;28;20058;-79
2022/01/14 09:12:47;;;;;;;13.68;2.80;;;6.50;99.90;;;;;;5078489;28;20040;-79
2022/01/14 09:15:13;;;;;;;13.13;2.90;;;6.60;99.90;;;;;;5062514;28;20082;-80
2022/01/14 09:17:40;;;;;;;7.38;2.33;;;6.60;99.90;;;;;;5064090;28;20044;-79
2022/01/14 09:20:08;;;;;;;14.90;2.88;;;7.10;99.90;;;;;;5063271;28;20051;-79
2022/01/14 09:22:35;;;;;;;7.68;2.60;;;6.60;99.90;;;;;;5061646;28;20089;-80
2022/01/14 09:25:03;;;;;;;9.95;2.90;;;6.60;99.90;;;;;;5079576;28;20886;-79
2022/01/14 09:27:30;;;;;;;14.00;2.90;;;6.60;99.90;;;;;;5078534;28;20114;-79
2022/01/14 09:29:57;;;;;;;9.35;2.70;;;6.70;99.90;;;;;;5063182;28;20135;-79
2022/01/14 09:32:23;;;;;;;11.43;2.95;;;6.70;99.90;;;;;;5044559;28;20054;-79
2022/01/14 09:34:49;;;;;;;9.75;2.60;;;6.70;99.90;;;;;;5078957;28;20043;-79
2022/01/14 09:37:15;;;;;;;8.32;2.38;;;6.80;99.90;;;;;;5078922;28;20397;-81
2022/01/14 09:39:43;;;;;;;8.48;2.50;;;6.70;99.90;;;;;;5060271;28;20048;-79
2022/01/14 09:42:13;;;;;;;10.35;3.00;;;6.80;99.90;;;;;;5062000;28;20052;-79
2022/01/14 09:44:40;;;;;;;9.70;2.53;;;6.80;99.90;;;;;;5044276;28;20055;-79
2022/01/14 09:47:06;;;;;;;8.32;2.58;;;6.80;99.90;;;;;;5044769;28;20568;-80
2022/01/14 09:49:32;;;;;;;8.48;2.60;;;6.90;99.90;;;;;;5076299;28;20048;-80
2022/01/14 09:51:58;;;;;;;12.60;2.67;;;6.90;99.90;;;;;;5077069;28;20047;-79
2022/01/14 09:54:24;;;;;;;9.77;2.33;;;6.90;99.90;;;;;;5061090;28;20044;-79
2022/01/14 09:56:50;;;;;;;10.52;2.22;;;7.00;99.90;;;;;;5078235;28;20436;-79
2022/01/14 09:59:19;;;;;;;11.10;2.72;;;7.00;99.90;;;;;;5028492;28;20048;-80
2022/01/14 10:01:47;;;;;;;8.32;2.58;;;7.00;99.90;;;;;;5046318;28;20055;-79
2022/01/14 10:04:18;;;;;;;9.15;2.85;;;7.10;99.90;;;;;;5043819;28;20048;-79
2022/01/14 10:06:55;;;;;;;8.50;2.47;;;7.00;99.90;;;;;;5046994;28;20043;-78
2022/01/14 10:09:35;;;;;;;7.45;2.15;;;6.30;99.90;;;;;;5060661;28;20058;-79
2022/01/14 10:12:13;;;;;;;16.35;2.92;;;7.10;99.90;;;;;;5062864;28;20044;-79
2022/01/14 10:14:41;;;;;;;11.35;2.55;;;7.10;99.90;;;;;;5077315;28;20261;-79
2022/01/14 10:17:08;;;;;;;12.93;2.60;;;7.10;99.90;;;;;;5063263;28;20079;-79
2022/01/14 10:19:46;;;;;;;11.60;2.72;;;7.10;99.90;;;;;;5062821;28;20052;-79
2022/01/14 10:22:19;;;;;;;11.43;3.05;;;7.00;99.90;;;;;;5060289;28;20063;-79
2022/01/14 10:25:07;;;;;;;17.00;2.92;;;7.00;99.90;;;;;;5061122;28;20056;-79
2022/01/14 10:27:36;;;;;;;10.95;2.55;;;7.00;99.90;;;;;;5071876;28;20056;-79
2022/01/14 10:30:18;;;;;;;9.00;2.30;;;7.10;99.90;;;;;;5042443;28;20052;-79
2022/01/14 10:32:52;;;;;;;8.80;2.60;;;7.10;99.90;;;;;;5050459;28;20052;-79
2022/01/14 10:35:20;;;;;;;13.25;2.80;;;7.10;99.90;;;;;;5066091;28;20048;-80
2022/01/14 10:37:46;;;;;;;12.95;2.78;;;7.10;99.90;;;;;;5050121;28;20134;-79
2022/01/14 10:40:23;;;;;;;13.98;2.67;;;7.10;99.90;;;;;;5051034;28;20041;-79
2022/01/14 10:42:58;;;;;;;10.75;2.70;;;7.10;99.90;;;;;;5050011;28;20040;-79
2022/01/14 10:45:27;;;;;;;11.50;3.00;;;7.10;99.90;;;;;;5049705;28;20052;-80
2022/01/14 10:47:57;;;;;;;9.77;2.42;;;7.20;99.90;;;;;;5066974;28;20048;-79
2022/01/14 10:50:41;;;;;;;8.25;2.53;;;7.20;99.90;;;;;;5049414;28;20080;-81
2022/01/14 10:53:10;;;;;;;7.72;2.67;;;7.10;99.90;;;;;;5043957;28;21915;-80
2022/01/14 10:55:43;;;;;;;7.25;2.08;;;7.20;99.90;;;;;;5049017;28;20176;-79
2022/01/14 10:58:17;;;;;;;12.30;2.85;;;7.20;99.90;;;;;;5049332;28;20044;-79
2022/01/14 11:00:59;;;;;;;12.80;2.70;;;7.20;99.90;;;;;;5049231;28;20048;-80
2022/01/14 11:04:03;;;;;;;12.13;2.67;;;7.20;99.90;;;;;;5044681;28;20147;-79
2022/01/14 11:06:34;;;;;;;11.15;3.13;;;7.20;99.90;;;;;;5046936;28;20131;-80
2022/01/14 11:09:13;;;;;;;9.80;2.75;;;7.20;99.90;;;;;;5054462;28;20442;-79
2022/01/14 11:11:43;;;;;;;10.52;3.40;;;7.20;99.90;;;;;;5053308;28;20056;-80
2022/01/14 11:14:09;;;;;;;12.90;2.92;;;7.30;99.90;;;;;;5045479;28;20032;-80
2022/01/14 11:16:36;;;;;;;11.90;2.72;;;7.30;99.90;;;;;;5070246;28;20449;-80
2022/01/14 11:19:03;;;;;;;8.95;2.70;;;7.30;99.90;;;;;;5070494;28;20525;-80
2022/01/14 11:24:26;;;;;;;10.32;3.25;;;7.30;99.90;;;;;;5054276;28;20493;-80
2022/01/14 11:26:59;;;;;;;10.00;3.45;;;7.30;99.90;;;;;;5069966;28;20573;-80
2022/01/14 11:29:32;;;;;;;12.68;3.10;;;7.40;99.90;;;;;;5070052;28;20121;-80
2022/01/14 11:32:02;;;;;;;14.77;3.47;;;7.40;99.90;;;;;;5046509;28;20454;-79
2022/01/14 11:34:46;;;;;;;11.50;3.00;;;7.40;99.90;;;;;;5052835;28;20055;-80
2022/01/14 11:37:14;;;;;;;13.77;3.08;;;7.40;99.90;;;;;;5053286;28;20052;-80
2022/01/14 11:39:54;;;;;;;8.98;2.88;;;7.40;99.90;;;;;;5052776;28;21070;-80
2022/01/14 11:42:37;;;;;;;14.20;3.05;;;7.40;99.90;;;;;;5053251;28;20148;-80
2022/01/14 11:45:05;;;;;;;9.52;2.83;;;7.40;99.90;;;;;;5053102;28;20055;-80
2022/01/14 11:47:41;;;;;;;17.90;3.50;;;7.40;99.90;;;;;;5037147;28;20045;-80
2022/01/14 11:50:30;;;;;;;11.90;2.83;;;7.40;99.90;;;;;;5053752;28;20057;-80
2022/01/14 11:52:59;;;;;;;8.23;3.08;;;7.40;99.90;;;;;;5052288;28;20056;-80
2022/01/14 11:55:29;;;;;;;11.80;2.80;;;7.40;99.90;;;;;;5069829;28;20048;-80
2022/01/14 11:57:56;;;;;;;10.77;3.20;;;7.40;99.90;;;;;;5052564;28;20542;-80
2022/01/14 12:00:37;;;;;;;11.77;2.80;;;7.40;99.90;;;;;;5053282;28;20064;-81
2022/01/14 12:03:16;;;;;;;10.77;3.00;;;7.40;99.90;;;;;;5069836;28;20044;-79
2022/01/14 12:05:55;;;;;;;13.13;3.17;;;7.40;99.90;;;;;;5052121;28;20495;-79
2022/01/14 12:08:25;;;;;;;15.10;4.32;;;7.40;99.90;;;;;;5053356;28;20098;-79
2022/01/14 12:10:52;;;;;;;10.35;2.70;;;7.50;99.90;;;;;;5044152;28;20049;-80
2022/01/14 12:16:03;;;;;;;14.50;3.20;;;7.40;99.90;;;;;;5054343;28;20052;-80
2022/01/14 12:18:57;;;;;;;12.77;3.15;;;7.50;99.90;;;;;;5068476;28;20056;-81
2022/01/14 12:21:44;;;;;;;12.07;2.70;;;7.40;99.90;;;;;;5045015;28;20398;-79
2022/01/14 12:24:19;;;;;;;14.10;3.15;;;7.50;99.90;;;;;;5052123;28;20080;-80
2022/01/14 12:27:00;;;;;;;12.25;3.25;;;7.50;99.90;;;;;;5055387;28;20068;-79
2022/01/14 12:29:43;;;;;;;9.48;3.13;;;7.50;99.90;;;;;;5080546;28;20405;-80
2022/01/14 12:32:15;;;;;;;11.20;2.80;;;7.50;99.90;;;;;;5047399;28;20047;-80
2022/01/14 12:34:57;;;;;;;11.07;3.05;;;7.50;99.90;;;;;;5080579;28;20078;-80
2022/01/14 12:37:23;;;;;;;21.55;3.42;;;7.50;99.90;;;;;;5062092;28;20047;-80
2022/01/14 12:39:50;;;;;;;12.48;3.00;;;7.50;99.90;;;;;;5063748;28;20048;-80
2022/01/14 12:42:18;;;;;;;13.95;3.28;;;7.50;99.90;;;;;;5062303;28;20504;-80
2022/01/14 12:44:45;;;;;;;11.82;3.15;;;7.50;99.90;;;;;;5062808;28;20130;-80
2022/01/14 12:47:19;;;;;;;15.38;3.38;;;7.50;99.90;;;;;;5062984;28;20074;-79
2022/01/14 12:49:45;;;;;;;12.20;3.20;;;7.50;99.90;;;;;;5072044;28;20057;-80
2022/01/14 12:52:15;;;;;;;10.40;2.90;;;7.60;99.90;;;;;;5064121;28;20048;-80
2022/01/14 12:54:43;;;;;;;12.00;3.13;;;7.60;99.90;;;;;;5047760;28;20123;-80
2022/01/14 12:57:14;;;;;;;11.35;3.33;;;7.60;99.90;;;;;;5059635;28;20118;-80
2022/01/14 12:59:41;;;;;;;14.60;2.83;;;7.50;99.90;;;;;;5062560;28;20109;-80
2022/01/14 13:02:07;;;;;;;12.75;3.55;;;7.60;99.90;;;;;;5063816;28;20176;-79
2022/01/14 13:04:33;;;;;;;11.27;2.95;;;7.50;99.90;;;;;;5063253;28;20048;-81
2022/01/14 13:07:02;;;;;;;16.95;3.58;;;7.50;99.90;;;;;;5079710;28;20058;-79
2022/01/14 13:09:36;;;;;;;11.63;2.72;;;7.60;99.90;;;;;;5078690;28;20055;-79
2022/01/14 13:12:12;;;;;;;10.68;3.10;;;7.50;99.90;;;;;;5060670;28;20082;-80
2022/01/14 13:14:48;;;;;;;15.10;3.30;;;7.60;99.90;;;;;;5062308;28;20438;-80
2022/01/14 13:17:24;;;;;;;12.20;3.33;;;7.60;99.90;;;;;;5080601;28;20131;-80
2022/01/14 13:19:50;;;;;;;14.77;3.08;;;7.60;99.90;;;;;;5079658;28;20082;-80
2022/01/14 13:22:18;;;;;;;11.30;3.28;;;7.60;99.90;;;;;;5036453;28;20051;-80
2022/01/14 13:24:46;;;;;;;15.60;3.10;;;7.60;99.90;;;;;;5076984;28;20048;-80
2022/01/14 13:27:25;;;;;;;13.35;2.88;;;7.60;99.90;;;;;;5061020;28;20059;-80